Time;durP1;ratioP1;P1;durP2;ratioP2;P2;SDS_P1;SDS_P2;PMS_P1;PMS_P2;Temp;Humidity;BMP_temperature;BMP_pressure;BME280_temperature;BME280_humidity;BME280_pressure;Samples;Min_cycle;Max_cycle;Signal;HPM_P1;HPM_P2
2022/11/18 00:00:05;;;;;;;112.75;20.33;;;;;;;;;;5014339;28;20204;-58
2022/11/18 00:02:32;;;;;;;104.20;19.23;;;;;;;;;;5014765;28;20049;-59
2022/11/18 00:05:00;;;;;;;102.78;18.58;;;;;;;;;;5011124;28;20080;-57
2022/11/18 00:07:27;;;;;;;109.90;18.65;;;;;;;;;;5012853;28;20029;-60
2022/11/18 00:09:54;;;;;;;104.63;18.80;;;;;;;;;;5014956;28;20121;-60
2022/11/18 00:15:07;;;;;;;96.28;16.63;;;;;;;;;;5013280;28;20096;-59
2022/11/18 00:17:34;;;;;;;79.95;17.60;;;;;;;;;;5013188;28;20073;-59
2022/11/18 00:20:01;;;;;;;89.32;18.15;;;;;;;;;;5013955;28;20026;-59
2022/11/18 00:22:28;;;;;;;79.28;17.17;;;;;;;;;;5012050;28;20075;-58
2022/11/18 00:24:55;;;;;;;83.72;15.85;;;;;;;;;;5010685;28;20030;-58
2022/11/18 00:27:22;;;;;;;81.15;18.80;;;;;;;;;;5012698;28;20072;-59
2022/11/18 00:29:49;;;;;;;74.70;17.13;;;;;;;;;;5013890;28;20034;-54
2022/11/18 00:32:16;;;;;;;61.35;15.45;;;;;;;;;;5013198;28;20038;-61
2022/11/18 00:34:43;;;;;;;79.47;15.73;;;;;;;;;;5014036;28;20546;-60
2022/11/18 00:37:10;;;;;;;75.07;15.82;;;;;;;;;;5013838;28;20495;-60
2022/11/18 00:39:37;;;;;;;69.30;15.80;;;;;;;;;;5013005;28;20037;-50
2022/11/18 00:44:49;;;;;;;71.55;14.45;;;;;;;;;;5012145;28;20104;-53
2022/11/18 00:47:16;;;;;;;68.80;14.68;;;;;;;;;;5011470;28;20104;-61
2022/11/18 00:49:43;;;;;;;66.70;15.40;;;;;;;;;;5010652;28;20551;-59
2022/11/18 00:52:11;;;;;;;62.70;14.07;;;;;;;;;;5008738;28;20042;-59
2022/11/18 00:54:38;;;;;;;55.33;13.45;;;;;;;;;;5009972;28;20038;-61
2022/11/18 00:57:05;;;;;;;59.25;13.75;;;;;;;;;;5010916;28;20113;-55
2022/11/18 00:59:32;;;;;;;59.25;13.80;;;;;;;;;;5009918;28;20481;-59
2022/11/18 01:01:59;;;;;;;56.83;13.60;;;;;;;;;;5009458;28;20092;-53
2022/11/18 01:04:26;;;;;;;66.82;13.27;;;;;;;;;;5010465;28;20037;-59
2022/11/18 01:06:53;;;;;;;56.75;13.05;;;;;;;;;;5008836;28;20042;-59
2022/11/18 01:09:20;;;;;;;60.13;12.77;;;;;;;;;;4994745;28;20096;-58
2022/11/18 01:14:34;;;;;;;56.63;14.25;;;;;;;;;;5012749;28;20095;-58
2022/11/18 01:17:01;;;;;;;50.58;12.85;;;;;;;;;;5012548;28;20080;-59
2022/11/18 01:19:29;;;;;;;56.33;12.75;;;;;;;;;;4995022;28;20123;-59
2022/11/18 01:22:01;;;;;;;55.97;13.27;;;;;;;;;;5012751;28;20369;-59
2022/11/18 01:24:33;;;;;;;50.30;13.30;;;;;;;;;;5012278;28;20061;-59
2022/11/18 01:27:03;;;;;;;46.38;11.73;;;;;;;;;;5012553;28;20384;-58
2022/11/18 01:29:31;;;;;;;62.97;13.52;;;;;;;;;;5012788;28;20022;-59
2022/11/18 01:31:58;;;;;;;49.22;12.27;;;;;;;;;;5010908;28;20078;-60
2022/11/18 01:34:28;;;;;;;49.58;13.20;;;;;;;;;;5011724;28;20025;-59
2022/11/18 01:36:57;;;;;;;46.40;12.35;;;;;;;;;;5011655;28;20034;-60
2022/11/18 01:39:25;;;;;;;55.88;12.23;;;;;;;;;;5011275;28;20030;-58
2022/11/18 01:41:52;;;;;;;44.05;12.25;;;;;;;;;;5010960;28;20515;-59
2022/11/18 01:44:38;;;;;;;54.55;12.05;;;;;;;;;;5011903;28;20068;-59
2022/11/18 01:47:06;;;;;;;44.35;11.98;;;;;;;;;;5011314;28;20496;-59
2022/11/18 01:49:33;;;;;;;40.28;11.90;;;;;;;;;;5011456;28;20359;-59
2022/11/18 01:52:01;;;;;;;38.30;11.27;;;;;;;;;;5011725;28;20065;-58
2022/11/18 01:54:31;;;;;;;58.72;11.85;;;;;;;;;;5011044;28;20076;-60
2022/11/18 01:57:00;;;;;;;41.80;11.65;;;;;;;;;;5009368;28;20030;-59
2022/11/18 01:59:30;;;;;;;45.47;12.40;;;;;;;;;;4993564;28;20121;-59
2022/11/18 02:01:58;;;;;;;42.85;10.90;;;;;;;;;;5011491;28;20125;-59
2022/11/18 02:04:29;;;;;;;44.35;11.05;;;;;;;;;;5011743;28;20112;-59
2022/11/18 02:07:03;;;;;;;49.40;11.23;;;;;;;;;;5011968;28;20088;-56
2022/11/18 02:09:36;;;;;;;46.30;11.55;;;;;;;;;;5011445;28;20037;-56
2022/11/18 02:12:11;;;;;;;40.28;10.25;;;;;;;;;;5008855;28;20097;-58
2022/11/18 02:14:46;;;;;;;40.95;10.68;;;;;;;;;;5011441;28;20041;-54
2022/11/18 02:17:19;;;;;;;36.22;10.63;;;;;;;;;;5011155;28;20050;-59
2022/11/18 02:20:02;;;;;;;45.72;10.48;;;;;;;;;;5007903;28;20048;-58
2022/11/18 02:22:38;;;;;;;32.83;9.77;;;;;;;;;;5009088;28;20092;-59
2022/11/18 02:25:22;;;;;;;32.72;9.73;;;;;;;;;;5009646;28;20049;-60
2022/11/18 02:28:09;;;;;;;40.75;9.63;;;;;;;;;;5005385;28;20037;-59
2022/11/18 02:30:45;;;;;;;31.55;9.35;;;;;;;;;;5023997;22;20092;-59
2022/11/18 02:33:19;;;;;;;23.70;8.43;;;;;;;;;;5005228;28;20410;-58
2022/11/18 02:35:56;;;;;;;28.75;8.68;;;;;;;;;;5010675;28;20032;-59
2022/11/18 02:38:27;;;;;;;33.78;8.35;;;;;;;;;;5011837;28;20021;-56
2022/11/18 02:41:07;;;;;;;35.95;8.63;;;;;;;;;;5014667;28;20022;-55
2022/11/18 02:43:42;;;;;;;34.13;8.63;;;;;;;;;;5014786;28;20057;-57
2022/11/18 02:46:18;;;;;;;27.63;7.95;;;;;;;;;;5015163;28;20769;-57
2022/11/18 02:48:52;;;;;;;24.52;8.43;;;;;;;;;;5013666;28;20025;-56
2022/11/18 02:51:27;;;;;;;27.08;7.82;;;;;;;;;;5012801;28;20026;-58
2022/11/18 02:54:02;;;;;;;20.73;7.18;;;;;;;;;;5011833;28;20072;-58
2022/11/18 02:56:34;;;;;;;19.45;7.13;;;;;;;;;;5011812;28;20030;-56
2022/11/18 02:59:04;;;;;;;21.92;7.30;;;;;;;;;;5004518;28;20021;-59
2022/11/18 03:01:35;;;;;;;19.70;7.40;;;;;;;;;;5005355;28;20038;-58
2022/11/18 03:04:05;;;;;;;22.50;7.07;;;;;;;;;;4999746;28;20038;-58
2022/11/18 03:06:36;;;;;;;26.75;7.70;;;;;;;;;;4996236;28;20049;-58
2022/11/18 03:09:11;;;;;;;20.85;6.45;;;;;;;;;;4996344;28;20019;-58
2022/11/18 03:11:51;;;;;;;29.38;7.68;;;;;;;;;;4996173;28;20032;-58
2022/11/18 03:14:24;;;;;;;23.88;6.70;;;;;;;;;;4996568;28;20480;-58
2022/11/18 03:17:04;;;;;;;24.70;6.88;;;;;;;;;;4996074;28;20033;-58
2022/11/18 03:19:41;;;;;;;22.98;6.53;;;;;;;;;;4996295;28;20587;-58
2022/11/18 03:22:21;;;;;;;14.13;5.88;;;;;;;;;;4996358;28;20026;-54
2022/11/18 03:25:01;;;;;;;19.00;6.65;;;;;;;;;;4994427;28;20043;-54
2022/11/18 03:27:39;;;;;;;19.73;6.53;;;;;;;;;;4995552;28;20385;-52
2022/11/18 03:30:14;;;;;;;24.42;6.32;;;;;;;;;;4995070;28;20500;-58
2022/11/18 03:32:50;;;;;;;20.02;6.63;;;;;;;;;;4996139;28;20126;-56
2022/11/18 03:35:26;;;;;;;16.17;6.10;;;;;;;;;;4996159;28;20022;-52
2022/11/18 03:38:08;;;;;;;15.50;6.18;;;;;;;;;;4996111;28;20026;-55
2022/11/18 03:40:38;;;;;;;;;;;;;;;;;;4995762;28;20373;-55
2022/11/18 03:43:16;;;;;;;20.05;5.63;;;;;;;;;;4994173;28;19916;-54
2022/11/18 03:45:55;;;;;;;18.23;5.80;;;;;;;;;;4995980;28;20022;-59
2022/11/18 03:48:29;;;;;;;15.00;5.00;;;;;;;;;;4995840;28;20018;-58
2022/11/18 03:51:08;;;;;;;15.75;5.50;;;;;;;;;;4993340;28;20039;-56
2022/11/18 03:53:43;;;;;;;16.85;5.80;;;;;;;;;;4995413;28;20448;-56
2022/11/18 03:56:19;;;;;;;12.52;4.97;;;;;;;;;;4995824;28;20109;-57
2022/11/18 03:58:58;;;;;;;16.23;5.93;;;;;;;;;;4994867;28;20034;-57
2022/11/18 04:01:36;;;;;;;15.30;5.65;;;;;;;;;;4995691;28;20129;-52
2022/11/18 04:04:09;;;;;;;14.40;4.93;;;;;;;;;;4995609;28;20524;-52
2022/11/18 04:06:42;;;;;;;16.30;5.10;;;;;;;;;;4995533;28;20018;-52
2022/11/18 04:09:18;;;;;;;13.15;4.65;;;;;;;;;;4995349;28;20023;-53
2022/11/18 04:12:05;;;;;;;14.15;4.75;;;;;;;;;;4994900;28;20489;-55
2022/11/18 04:14:43;;;;;;;13.77;5.30;;;;;;;;;;4995448;28;20033;-53
2022/11/18 04:17:16;;;;;;;11.15;4.72;;;;;;;;;;5014680;28;20055;-54
2022/11/18 04:19:50;;;;;;;15.57;4.72;;;;;;;;;;5014752;28;20022;-55
2022/11/18 04:22:22;;;;;;;10.93;4.65;;;;;;;;;;5014893;28;20030;-55
2022/11/18 04:24:55;;;;;;;12.20;4.10;;;;;;;;;;5014845;28;20022;-56
2022/11/18 04:27:28;;;;;;;10.20;3.90;;;;;;;;;;5014709;28;20025;-54
2022/11/18 04:30:02;;;;;;;14.15;4.55;;;;;;;;;;5014199;28;20054;-57
2022/11/18 04:32:35;;;;;;;10.90;4.05;;;;;;;;;;5014280;28;20034;-57
2022/11/18 04:35:08;;;;;;;12.27;4.38;;;;;;;;;;5014640;28;20018;-58
2022/11/18 04:37:41;;;;;;;10.80;3.58;;;;;;;;;;5014110;28;20479;-58
2022/11/18 04:40:15;;;;;;;9.68;3.90;;;;;;;;;;5014441;28;20029;-57
2022/11/18 04:42:48;;;;;;;10.95;4.07;;;;;;;;;;5014495;28;20386;-55
2022/11/18 04:45:21;;;;;;;9.82;3.58;;;;;;;;;;5014403;28;20050;-57
2022/11/18 04:47:54;;;;;;;8.95;3.45;;;;;;;;;;5014326;28;20018;-57
2022/11/18 04:50:27;;;;;;;11.35;3.83;;;;;;;;;;5014210;28;20022;-57
2022/11/18 04:53:00;;;;;;;11.48;3.65;;;;;;;;;;5014249;28;20036;-55
2022/11/18 04:55:33;;;;;;;8.63;3.20;;;;;;;;;;5014249;28;20026;-55
2022/11/18 04:58:06;;;;;;;8.90;3.28;;;;;;;;;;5014159;28;20171;-57
2022/11/18 05:00:39;;;;;;;9.52;3.47;;;;;;;;;;5013576;28;20018;-56
2022/11/18 05:03:12;;;;;;;8.70;3.40;;;;;;;;;;5014050;28;20483;-56
2022/11/18 05:05:44;;;;;;;8.13;3.28;;;;;;;;;;5014067;28;20022;-57
2022/11/18 05:08:18;;;;;;;7.88;3.33;;;;;;;;;;5013996;28;20025;-57
2022/11/18 05:10:50;;;;;;;7.80;3.22;;;;;;;;;;5013773;28;20029;-58
2022/11/18 05:13:23;;;;;;;9.38;3.00;;;;;;;;;;5013508;28;20090;-57
2022/11/18 05:15:56;;;;;;;10.95;3.60;;;;;;;;;;5013891;28;20472;-55
2022/11/18 05:18:28;;;;;;;11.05;3.40;;;;;;;;;;5013770;28;20109;-57
2022/11/18 05:21:02;;;;;;;8.45;3.00;;;;;;;;;;5013766;28;20541;-57
2022/11/18 05:23:34;;;;;;;8.18;2.97;;;;;;;;;;5013736;28;20025;-57
2022/11/18 05:26:11;;;;;;;7.35;2.63;;;;;;;;;;5013743;28;20068;-57
2022/11/18 05:28:45;;;;;;;6.35;2.83;;;;;;;;;;5013519;28;20021;-57
2022/11/18 05:31:18;;;;;;;7.03;2.88;;;;;;;;;;5012701;28;20412;-57
2022/11/18 05:33:52;;;;;;;6.57;2.92;;;;;;;;;;5013506;28;20089;-57
2022/11/18 05:36:25;;;;;;;6.95;2.78;;;;;;;;;;5013571;28;20022;-58
2022/11/18 05:39:01;;;;;;;4.43;2.25;;;;;;;;;;5013313;28;20103;-58
2022/11/18 05:44:15;;;;;;;7.20;2.70;;;;;;;;;;5019631;28;20041;-54
2022/11/18 05:46:42;;;;;;;5.30;2.63;;;;;;;;;;5013362;28;20475;-56
2022/11/18 05:49:09;;;;;;;5.25;2.58;;;;;;;;;;5013188;28;20026;-57
2022/11/18 05:51:36;;;;;;;6.88;2.88;;;;;;;;;;5013146;28;20033;-56
2022/11/18 05:54:04;;;;;;;6.03;2.50;;;;;;;;;;5013255;28;20037;-57
2022/11/18 05:56:38;;;;;;;6.43;2.47;;;;;;;;;;5012083;28;20088;-56
2022/11/18 05:59:05;;;;;;;8.05;2.40;;;;;;;;;;5013102;28;20030;-56
2022/11/18 06:01:40;;;;;;;8.15;2.35;;;;;;;;;;5010689;28;20038;-55
2022/11/18 06:04:09;;;;;;;5.78;2.20;;;;;;;;;;5013041;28;20022;-55
2022/11/18 06:06:36;;;;;;;7.30;2.40;;;;;;;;;;5013089;28;20022;-55
2022/11/18 06:09:04;;;;;;;6.63;2.25;;;;;;;;;;5012893;28;20022;-56
2022/11/18 06:11:33;;;;;;;6.45;2.10;;;;;;;;;;5012798;28;20030;-52
2022/11/18 06:14:02;;;;;;;5.43;2.30;;;;;;;;;;5012366;28;20026;-57
2022/11/18 06:16:31;;;;;;;4.75;2.17;;;;;;;;;;5012949;28;20014;-55
2022/11/18 06:18:58;;;;;;;3.30;1.77;;;;;;;;;;5012783;28;20109;-56
2022/11/18 06:21:26;;;;;;;5.07;1.92;;;;;;;;;;5012785;28;20104;-55
2022/11/18 06:23:53;;;;;;;6.60;2.30;;;;;;;;;;5012886;28;20113;-53
2022/11/18 06:26:20;;;;;;;4.78;2.05;;;;;;;;;;5012890;28;20068;-54
2022/11/18 06:28:47;;;;;;;5.05;1.88;;;;;;;;;;5012717;28;20026;-55
2022/11/18 06:31:17;;;;;;;4.93;1.90;;;;;;;;;;5012515;28;20050;-55
2022/11/18 06:33:44;;;;;;;4.47;1.70;;;;;;;;;;5012769;28;20118;-56
2022/11/18 06:36:11;;;;;;;3.67;1.90;;;;;;;;;;5012736;28;20022;-56
2022/11/18 06:38:38;;;;;;;7.78;1.95;;;;;;;;;;4995036;28;20845;-56
2022/11/18 06:41:05;;;;;;;5.57;2.00;;;;;;;;;;5012683;28;20041;-53
2022/11/18 06:43:38;;;;;;;3.40;1.65;;;;;;;;;;5012698;28;20037;-58
2022/11/18 06:48:51;;;;;;;4.35;1.58;;;;;;;;;;5012512;28;20037;-60
2022/11/18 06:51:18;;;;;;;6.72;2.00;;;;;;;;;;5012406;28;20387;-58
2022/11/18 06:53:45;;;;;;;4.10;1.50;;;;;;;;;;5012588;28;20042;-51
2022/11/18 06:56:13;;;;;;;4.70;1.90;;;;;;;;;;5012647;28;20506;-55
2022/11/18 06:58:41;;;;;;;3.55;1.42;;;;;;;;;;5012461;28;20083;-52
2022/11/18 07:01:15;;;;;;;3.55;1.65;;;;;;;;;;5012583;28;20030;-58
2022/11/18 07:03:42;;;;;;;3.65;1.83;;;;;;;;;;5012559;28;20022;-53
2022/11/18 07:06:10;;;;;;;4.22;1.98;;;;;;;;;;5012431;28;20053;-53
2022/11/18 07:08:38;;;;;;;4.20;1.73;;;;;;;;;;5012387;28;20491;-55
2022/11/18 07:11:06;;;;;;;3.78;1.20;;;;;;;;;;5012349;28;20033;-52
2022/11/18 07:13:33;;;;;;;4.38;1.52;;;;;;;;;;5012415;28;20480;-53
2022/11/18 07:18:36;;;;;;;3.70;1.25;;;;;;;;;;4986749;28;20152;-53
2022/11/18 07:21:07;;;;;;;4.73;1.70;;;;;;;;;;4992883;28;20046;-57
2022/11/18 07:23:34;;;;;;;1.95;1.20;;;;;;;;;;4993466;28;20034;-56
2022/11/18 07:26:02;;;;;;;2.08;1.02;;;;;;;;;;4996299;28;20399;-59
2022/11/18 07:28:29;;;;;;;3.60;1.45;;;;;;;;;;4996324;28;20485;-54
2022/11/18 07:31:07;;;;;;;5.40;1.40;;;;;;;;;;4996363;28;20396;-53
2022/11/18 07:33:34;;;;;;;3.17;1.50;;;;;;;;;;4996226;28;20034;-55
2022/11/18 07:36:03;;;;;;;3.83;1.40;;;;;;;;;;4996125;28;20584;-56
2022/11/18 07:38:30;;;;;;;5.82;1.65;;;;;;;;;;4996118;28;20077;-56
2022/11/18 07:41:07;;;;;;;2.42;1.10;;;;;;;;;;4996251;28;20074;-55
2022/11/18 07:43:35;;;;;;;1.90;1.10;;;;;;;;;;4996135;28;20030;-53
2022/11/18 07:46:11;;;;;;;5.07;1.40;;;;;;;;;;5010962;28;20030;-56
2022/11/18 07:48:38;;;;;;;2.92;1.30;;;;;;;;;;4995945;28;20109;-54
2022/11/18 07:51:05;;;;;;;3.55;1.33;;;;;;;;;;4996003;28;20058;-54
2022/11/18 07:53:32;;;;;;;3.30;1.27;;;;;;;;;;5010826;28;20034;-54
2022/11/18 07:55:59;;;;;;;3.13;1.30;;;;;;;;;;4995747;28;20523;-58
2022/11/18 07:58:26;;;;;;;4.78;1.52;;;;;;;;;;4996059;28;20073;-56
2022/11/18 08:00:53;;;;;;;2.25;1.10;;;;;;;;;;4995764;28;20026;-57
2022/11/18 08:03:20;;;;;;;2.72;1.17;;;;;;;;;;4995759;28;20538;-53
2022/11/18 08:05:47;;;;;;;3.17;1.00;;;;;;;;;;4995681;28;20034;-56
2022/11/18 08:08:14;;;;;;;5.22;1.40;;;;;;;;;;4995559;28;20485;-57
2022/11/18 08:10:41;;;;;;;4.07;1.20;;;;;;;;;;4995601;28;20022;-55
2022/11/18 08:13:08;;;;;;;2.95;1.10;;;;;;;;;;4995436;28;20399;-55
2022/11/18 08:15:35;;;;;;;2.72;1.33;;;;;;;;;;4995468;28;20053;-55
2022/11/18 08:18:02;;;;;;;3.33;1.30;;;;;;;;;;4995184;28;20046;-55
2022/11/18 08:20:29;;;;;;;2.25;1.00;;;;;;;;;;4995415;28;20026;-55
2022/11/18 08:22:56;;;;;;;2.92;1.20;;;;;;;;;;4995355;28;20392;-53
2022/11/18 08:25:22;;;;;;;1.67;0.95;;;;;;;;;;4995315;28;20054;-56
2022/11/18 08:27:49;;;;;;;3.03;1.20;;;;;;;;;;4995109;28;20030;-53
2022/11/18 08:30:16;;;;;;;2.95;1.00;;;;;;;;;;4995175;28;20026;-54
2022/11/18 08:32:43;;;;;;;2.88;1.10;;;;;;;;;;4995110;28;20030;-56
2022/11/18 08:35:10;;;;;;;1.88;1.00;;;;;;;;;;4994337;28;20472;-55
2022/11/18 08:37:37;;;;;;;1.45;0.90;;;;;;;;;;4994927;28;20558;-53
2022/11/18 08:40:05;;;;;;;2.35;1.00;;;;;;;;;;4995039;28;20499;-55
2022/11/18 08:42:32;;;;;;;2.97;1.10;;;;;;;;;;4995020;28;20511;-57
2022/11/18 08:44:59;;;;;;;2.60;1.10;;;;;;;;;;4994898;28;20033;-56
2022/11/18 08:47:26;;;;;;;4.07;1.30;;;;;;;;;;4993598;28;20053;-56
2022/11/18 08:49:52;;;;;;;2.33;1.20;;;;;;;;;;4994812;28;20030;-56
2022/11/18 08:52:19;;;;;;;2.75;1.10;;;;;;;;;;4994708;28;20030;-56
2022/11/18 08:54:46;;;;;;;3.15;1.20;;;;;;;;;;4994760;28;20030;-56
2022/11/18 08:57:13;;;;;;;1.55;0.95;;;;;;;;;;4994642;28;20413;-56
2022/11/18 08:59:40;;;;;;;2.45;1.20;;;;;;;;;;4994704;28;20081;-55
2022/11/18 09:02:13;;;;;;;2.90;1.13;;;;;;;;;;4994563;28;20530;-55
2022/11/18 09:04:40;;;;;;;2.15;1.20;;;;;;;;;;4994571;28;20528;-57
2022/11/18 09:07:07;;;;;;;2.28;1.00;;;;;;;;;;4994422;28;20069;-53
2022/11/18 09:09:35;;;;;;;3.38;1.00;;;;;;;;;;4994560;28;20022;-54
2022/11/18 09:12:02;;;;;;;2.80;1.15;;;;;;;;;;4994278;28;20035;-56
2022/11/18 09:14:29;;;;;;;3.13;0.93;;;;;;;;;;4994409;28;20101;-55
2022/11/18 09:16:56;;;;;;;2.88;0.95;;;;;;;;;;4994126;28;20062;-55
2022/11/18 09:19:23;;;;;;;3.97;1.20;;;;;;;;;;4994374;28;20057;-57
2022/11/18 09:21:50;;;;;;;3.72;1.10;;;;;;;;;;4994279;28;20022;-54
2022/11/18 09:24:17;;;;;;;1.73;0.90;;;;;;;;;;4994192;28;20022;-54
2022/11/18 09:26:44;;;;;;;3.58;1.10;;;;;;;;;;4994136;28;20027;-54
2022/11/18 09:29:11;;;;;;;2.22;1.08;;;;;;;;;;4994153;28;20097;-54
2022/11/18 09:31:38;;;;;;;4.05;1.10;;;;;;;;;;4993992;28;20024;-56
2022/11/18 09:34:05;;;;;;;2.35;1.10;;;;;;;;;;4994085;28;20055;-54
2022/11/18 09:36:32;;;;;;;3.15;0.85;;;;;;;;;;4993871;28;20026;-54
2022/11/18 09:38:59;;;;;;;2.47;1.23;;;;;;;;;;4993902;28;20045;-55
2022/11/18 09:41:32;;;;;;;2.72;1.08;;;;;;;;;;4993939;28;20018;-55
2022/11/18 09:44:08;;;;;;;2.13;0.85;;;;;;;;;;4993804;28;20054;-56
2022/11/18 09:46:40;;;;;;;4.00;1.02;;;;;;;;;;4993525;28;20031;-54
2022/11/18 09:49:14;;;;;;;1.27;0.70;;;;;;;;;;4993841;28;20033;-55
2022/11/18 09:51:43;;;;;;;1.50;1.00;;;;;;;;;;4993688;28;20105;-55
2022/11/18 09:54:23;;;;;;;2.20;0.95;;;;;;;;;;4993702;28;20034;-56
2022/11/18 09:56:51;;;;;;;2.35;0.88;;;;;;;;;;4993485;28;20092;-50
2022/11/18 09:59:22;;;;;;;2.90;0.95;;;;;;;;;;4993666;28;20464;-56
2022/11/18 10:01:50;;;;;;;2.35;0.93;;;;;;;;;;4993564;28;20026;-53
2022/11/18 10:04:18;;;;;;;3.42;1.00;;;;;;;;;;4993495;28;20026;-53
2022/11/18 10:06:45;;;;;;;2.67;0.80;;;;;;;;;;4993464;28;20030;-56
2022/11/18 10:09:21;;;;;;;2.35;1.02;;;;;;;;;;4993473;28;20053;-54
2022/11/18 10:11:48;;;;;;;2.38;0.88;;;;;;;;;;4993369;28;20026;-54
2022/11/18 10:14:27;;;;;;;1.58;0.80;;;;;;;;;;4993438;28;20411;-51
2022/11/18 10:16:54;;;;;;;1.98;0.95;;;;;;;;;;4993105;28;20092;-53
2022/11/18 10:19:38;;;;;;;1.80;0.90;;;;;;;;;;4993074;28;20034;-55
2022/11/18 10:22:17;;;;;;;1.55;0.90;;;;;;;;;;4992176;28;20061;-52
2022/11/18 10:24:46;;;;;;;3.13;0.90;;;;;;;;;;4992324;28;20035;-52
2022/11/18 10:27:14;;;;;;;1.73;0.85;;;;;;;;;;4992237;28;20052;-53
2022/11/18 10:29:41;;;;;;;3.08;0.90;;;;;;;;;;4985128;28;20038;-55
2022/11/18 10:32:12;;;;;;;1.23;0.95;;;;;;;;;;4992581;28;20547;-56
2022/11/18 10:34:55;;;;;;;1.52;0.68;;;;;;;;;;4992772;28;20038;-55
2022/11/18 10:37:25;;;;;;;4.68;1.00;;;;;;;;;;4991567;28;20028;-51
2022/11/18 10:39:53;;;;;;;15.88;1.40;;;;;;;;;;4992894;28;20026;-51
2022/11/18 10:42:29;;;;;;;6.68;1.30;;;;;;;;;;4992911;28;20026;-55
2022/11/18 10:44:56;;;;;;;9.90;1.38;;;;;;;;;;4992985;28;20046;-49
2022/11/18 10:47:23;;;;;;;7.78;1.20;;;;;;;;;;4993063;28;20101;-52
2022/11/18 10:49:51;;;;;;;7.75;1.00;;;;;;;;;;4992588;28;20088;-49
2022/11/18 10:52:18;;;;;;;4.13;1.10;;;;;;;;;;4992861;28;20162;-53
2022/11/18 10:54:45;;;;;;;6.72;1.10;;;;;;;;;;4992996;28;20037;-53
2022/11/18 10:57:15;;;;;;;5.40;1.25;;;;;;;;;;5008014;28;20499;-50
2022/11/18 10:59:56;;;;;;;1.98;1.00;;;;;;;;;;4995347;28;20054;-51
2022/11/18 11:02:29;;;;;;;2.50;1.08;;;;;;;;;;4996799;28;20061;-55
2022/11/18 11:04:57;;;;;;;3.67;1.30;;;;;;;;;;4997043;28;20080;-53
2022/11/18 11:07:30;;;;;;;8.48;1.20;;;;;;;;;;4996278;28;20031;-56
2022/11/18 11:10:01;;;;;;;6.43;1.20;;;;;;;;;;4996537;28;20034;-53
2022/11/18 11:12:31;;;;;;;6.97;1.88;;;;;;;;;;4995985;28;20455;-51
2022/11/18 11:15:00;;;;;;;9.93;1.80;;;;;;;;;;4996026;28;20022;-50
2022/11/18 11:17:38;;;;;;;18.55;2.50;;;;;;;;;;4996299;28;20058;-49
2022/11/18 11:20:10;;;;;;;15.00;2.05;;;;;;;;;;4996511;28;20022;-54
2022/11/18 11:22:37;;;;;;;14.40;1.98;;;;;;;;;;4996398;28;20110;-52
2022/11/18 11:25:06;;;;;;;15.15;1.98;;;;;;;;;;4995664;28;20061;-51
2022/11/18 11:27:33;;;;;;;20.25;2.35;;;;;;;;;;4996261;28;20503;-60
2022/11/18 11:30:03;;;;;;;11.68;1.95;;;;;;;;;;4995587;28;20031;-60
2022/11/18 11:32:33;;;;;;;54.85;3.67;;;;;;;;;;4995935;28;20053;-58
2022/11/18 11:35:03;;;;;;;23.15;2.92;;;;;;;;;;4996512;28;20042;-58
2022/11/18 11:37:56;;;;;;;20.98;2.92;;;;;;;;;;4996015;28;20435;-57
2022/11/18 11:40:24;;;;;;;20.73;3.13;;;;;;;;;;4980016;28;20097;-54
2022/11/18 11:42:57;;;;;;;13.02;2.78;;;;;;;;;;4995494;28;20480;-52
2022/11/18 11:45:26;;;;;;;8.65;2.70;;;;;;;;;;5010724;28;20046;-51
2022/11/18 11:47:59;;;;;;;18.65;3.10;;;;;;;;;;4995598;28;20038;-60
2022/11/18 11:50:57;;;;;;;15.23;2.40;;;;;;;;;;4992856;28;20034;-52
2022/11/18 11:53:32;;;;;;;17.60;3.15;;;;;;;;;;4991545;28;20038;-52
2022/11/18 11:56:17;;;;;;;26.63;2.97;;;;;;;;;;4995108;28;20133;-50
2022/11/18 11:59:07;;;;;;;17.30;2.80;;;;;;;;;;4995622;28;20428;-56
2022/11/18 12:01:56;;;;;;;17.65;2.75;;;;;;;;;;4976865;28;20488;-55
2022/11/18 12:04:29;;;;;;;11.35;2.30;;;;;;;;;;4992325;28;20038;-57
2022/11/18 12:06:57;;;;;;;10.65;2.50;;;;;;;;;;4992756;28;20030;-54
2022/11/18 12:09:34;;;;;;;15.88;2.92;;;;;;;;;;4994825;28;20026;-56
2022/11/18 12:12:33;;;;;;;12.25;2.63;;;;;;;;;;4994015;28;20092;-58
2022/11/18 12:15:00;;;;;;;14.35;2.83;;;;;;;;;;4993820;28;20089;-59
2022/11/18 12:17:53;;;;;;;15.82;2.53;;;;;;;;;;4994639;28;20125;-59
2022/11/18 12:20:38;;;;;;;14.05;2.50;;;;;;;;;;4992989;28;20042;-57
2022/11/18 12:23:13;;;;;;;10.90;3.20;;;;;;;;;;4995067;28;20044;-56
2022/11/18 12:25:49;;;;;;;12.15;3.42;;;;;;;;;;4994043;28;20349;-55
2022/11/18 12:28:42;;;;;;;7.65;3.08;;;;;;;;;;4993535;28;20042;-54
2022/11/18 12:31:29;;;;;;;9.18;3.00;;;;;;;;;;4992619;28;20519;-59
2022/11/18 12:33:56;;;;;;;7.88;2.63;;;;;;;;;;4969610;28;20046;-57
2022/11/18 12:36:33;;;;;;;8.27;2.50;;;;;;;;;;4977651;28;20154;-58
2022/11/18 12:39:19;;;;;;;14.45;3.17;;;;;;;;;;4994542;28;20041;-53
2022/11/18 12:44:32;;;;;;;12.27;2.45;;;;;;;;;;4989261;28;20046;-55
2022/11/18 12:47:02;;;;;;;7.72;2.63;;;;;;;;;;4994663;28;20041;-53
2022/11/18 12:49:29;;;;;;;17.48;2.85;;;;;;;;;;4994643;28;20022;-52
2022/11/18 12:51:57;;;;;;;9.35;2.20;;;;;;;;;;4987828;28;20042;-56
2022/11/18 12:54:42;;;;;;;18.63;2.20;;;;;;;;;;4976382;28;20027;-54
2022/11/18 12:57:21;;;;;;;13.25;3.05;;;;;;;;;;4992721;28;20027;-57
2022/11/18 12:59:48;;;;;;;9.00;2.60;;;;;;;;;;4994576;28;20487;-55
2022/11/18 13:02:20;;;;;;;6.68;2.05;;;;;;;;;;4994452;28;20034;-51
2022/11/18 13:05:05;;;;;;;8.80;2.40;;;;;;;;;;4993726;28;20030;-53
2022/11/18 13:10:29;;;;;;;10.43;2.85;;;;;;;;;;4992198;28;20041;-54
2022/11/18 13:12:56;;;;;;;7.72;2.30;;;;;;;;;;4991593;28;20043;-50
2022/11/18 13:18:12;;;;;;;23.58;3.55;;;;;;;;;;4994101;28;20092;-55
2022/11/18 13:20:40;;;;;;;13.82;2.97;;;;;;;;;;4993420;28;20125;-50
2022/11/18 13:26:18;;;;;;;12.77;2.58;;;;;;;;;;4993743;28;20041;-53
2022/11/18 13:28:45;;;;;;;13.93;2.58;;;;;;;;;;4988939;28;20090;-54
2022/11/18 13:31:30;;;;;;;10.10;2.40;;;;;;;;;;4993757;28;20054;-49
2022/11/18 13:34:01;;;;;;;7.32;2.63;;;;;;;;;;4993616;28;20050;-53
2022/11/18 13:36:28;;;;;;;8.52;2.13;;;;;;;;;;4993765;28;20026;-48
2022/11/18 13:39:05;;;;;;;6.78;1.80;;;;;;;;;;4993922;28;20471;-52
2022/11/18 13:41:34;;;;;;;8.82;2.08;;;;;;;;;;4992217;28;20105;-51
2022/11/18 13:44:11;;;;;;;6.25;2.30;;;;;;;;;;4993314;28;20056;-52
2022/11/18 13:46:39;;;;;;;5.30;1.77;;;;;;;;;;4993169;28;20030;-54
2022/11/18 13:49:06;;;;;;;8.40;2.03;;;;;;;;;;4992219;28;20045;-55
2022/11/18 13:51:33;;;;;;;5.30;1.98;;;;;;;;;;4992952;28;20081;-52
2022/11/18 13:54:00;;;;;;;10.18;2.00;;;;;;;;;;4992701;28;20046;-53
2022/11/18 13:56:29;;;;;;;6.97;1.83;;;;;;;;;;4992433;28;20076;-50
2022/11/18 13:58:59;;;;;;;5.63;1.73;;;;;;;;;;4993033;28;20061;-51
2022/11/18 14:01:35;;;;;;;10.98;2.10;;;;;;;;;;4992635;28;20408;-51
2022/11/18 14:04:08;;;;;;;7.57;2.28;;;;;;;;;;4992541;28;20097;-52
2022/11/18 14:06:39;;;;;;;11.85;2.13;;;;;;;;;;4992803;28;20034;-53
2022/11/18 14:09:09;;;;;;;13.00;2.30;;;;;;;;;;4992505;28;20484;-52
2022/11/18 14:11:44;;;;;;;19.80;2.55;;;;;;;;;;4992309;28;20033;-54
2022/11/18 14:14:13;;;;;;;16.73;2.70;;;;;;;;;;4992855;28;20026;-50
2022/11/18 14:16:42;;;;;;;9.80;2.20;;;;;;;;;;4992160;28;20046;-53
2022/11/18 14:19:45;;;;;;;14.35;2.55;;;;;;;;;;4992208;28;20146;-53
2022/11/18 14:22:14;;;;;;;14.95;1.80;;;;;;;;;;4951512;29;20047;-55
2022/11/18 14:24:41;;;;;;;13.25;2.30;;;;;;;;;;4984933;28;20050;-54
2022/11/18 14:27:26;;;;;;;6.18;1.80;;;;;;;;;;4975821;28;20114;-53
2022/11/18 14:29:53;;;;;;;12.30;1.98;;;;;;;;;;4972958;28;20027;-54
2022/11/18 14:32:20;;;;;;;9.75;1.90;;;;;;;;;;4972756;28;20034;-55
2022/11/18 14:34:57;;;;;;;8.77;2.13;;;;;;;;;;4975345;28;20090;-54
2022/11/18 14:37:24;;;;;;;6.93;2.05;;;;;;;;;;4976693;28;20035;-53
2022/11/18 14:39:57;;;;;;;6.88;2.10;;;;;;;;;;4976762;28;20445;-53
2022/11/18 14:42:24;;;;;;;8.27;1.95;;;;;;;;;;4976762;28;20445;-53
2022/11/18 14:44:51;;;;;;;8.45;2.20;;;;;;;;;;4976806;28;20089;-48
2022/11/18 14:47:18;;;;;;;12.98;1.98;;;;;;;;;;4976744;28;20025;-53
2022/11/18 14:49:45;;;;;;;9.32;1.90;;;;;;;;;;4976721;28;20455;-55
2022/11/18 14:52:12;;;;;;;7.28;2.10;;;;;;;;;;4976432;28;20588;-55
2022/11/18 14:54:39;;;;;;;5.32;1.90;;;;;;;;;;4976612;28;20393;-56
2022/11/18 14:57:06;;;;;;;5.70;1.90;;;;;;;;;;4976348;28;20083;-56
2022/11/18 14:59:33;;;;;;;7.65;1.60;;;;;;;;;;4976362;28;20481;-56
2022/11/18 15:02:00;;;;;;;8.20;2.00;;;;;;;;;;4976694;28;20042;-56
2022/11/18 15:04:27;;;;;;;7.82;1.95;;;;;;;;;;4976048;28;20389;-56
2022/11/18 15:06:54;;;;;;;6.32;1.92;;;;;;;;;;4976163;28;20432;-56
2022/11/18 15:09:21;;;;;;;6.20;1.80;;;;;;;;;;4976560;28;20503;-54
2022/11/18 15:11:48;;;;;;;10.05;2.15;;;;;;;;;;4975852;28;20046;-53
2022/11/18 15:14:15;;;;;;;4.97;1.73;;;;;;;;;;4975052;28;20027;-56
2022/11/18 15:16:42;;;;;;;6.63;2.05;;;;;;;;;;4976055;28;20055;-56
2022/11/18 15:19:11;;;;;;;5.60;1.77;;;;;;;;;;4975812;28;20072;-53
2022/11/18 15:21:38;;;;;;;7.82;2.00;;;;;;;;;;4976002;28;20046;-52
2022/11/18 15:24:05;;;;;;;5.80;1.90;;;;;;;;;;4976133;28;20029;-56
2022/11/18 15:26:36;;;;;;;3.97;1.73;;;;;;;;;;4975458;28;20023;-55